Time;durP1;ratioP1;P1;durP2;ratioP2;P2;SDS_P1;SDS_P2;PMS_P1;PMS_P2;Temp;Humidity;BMP_temperature;BMP_pressure;BME280_temperature;BME280_humidity;BME280_pressure;Samples;Min_cycle;Max_cycle;Signal;HPM_P1;HPM_P2
2023/04/30 00:02:17;;;;;;;58.47;35.67;;;14.10;58.00;;;;;;5020763;28;20053;-47
2023/04/30 00:04:44;;;;;;;52.42;33.13;;;14.00;58.00;;;;;;5023036;28;20053;-45
2023/04/30 00:07:11;;;;;;;51.22;32.45;;;14.00;58.00;;;;;;5020482;28;20057;-42
2023/04/30 00:09:39;;;;;;;53.47;33.53;;;14.00;58.00;;;;;;5022918;28;20417;-46
2023/04/30 00:12:06;;;;;;;50.22;33.28;;;14.00;58.00;;;;;;5022381;28;20057;-47
2023/04/30 00:14:33;;;;;;;52.05;34.00;;;14.00;58.10;;;;;;5020435;28;20049;-46
2023/04/30 00:17:00;;;;;;;54.58;33.47;;;14.00;58.10;;;;;;5022086;28;20489;-46
2023/04/30 00:19:29;;;;;;;52.30;33.88;;;14.00;58.10;;;;;;5022620;28;20057;-49
2023/04/30 00:21:56;;;;;;;55.50;34.10;;;14.00;58.20;;;;;;5023458;28;20064;-46
2023/04/30 00:24:23;;;;;;;49.15;31.42;;;14.00;58.20;;;;;;5021582;28;20049;-46
2023/04/30 00:26:51;;;;;;;51.95;33.35;;;14.00;58.10;;;;;;5022325;28;20520;-47
2023/04/30 00:29:18;;;;;;;49.67;32.15;;;13.90;58.10;;;;;;5022587;28;20045;-49
2023/04/30 00:31:45;;;;;;;55.90;33.75;;;13.90;58.00;;;;;;5021753;28;21018;-44
2023/04/30 00:34:12;;;;;;;53.75;34.53;;;13.90;58.00;;;;;;5019342;28;20049;-48
2023/04/30 00:36:41;;;;;;;55.30;33.45;;;13.90;58.00;;;;;;5021537;28;20053;-46
2023/04/30 00:39:08;;;;;;;52.92;34.05;;;13.90;58.00;;;;;;5021745;28;20402;-49
2023/04/30 00:41:36;;;;;;;57.15;34.10;;;13.90;58.00;;;;;;5022716;28;20485;-48
2023/04/30 00:44:03;;;;;;;53.92;35.22;;;13.90;58.00;;;;;;5021482;28;20057;-48
2023/04/30 00:46:30;;;;;;;55.10;34.85;;;13.90;58.00;;;;;;5017657;28;20340;-46
2023/04/30 00:48:58;;;;;;;56.00;35.70;;;13.90;57.90;;;;;;5021024;28;21698;-48
2023/04/30 00:51:26;;;;;;;57.58;36.17;;;13.80;57.90;;;;;;5021633;28;20056;-49
2023/04/30 00:53:55;;;;;;;59.63;36.35;;;13.80;57.90;;;;;;5022025;28;20053;-45
2023/04/30 00:56:23;;;;;;;60.13;37.75;;;13.70;57.80;;;;;;5020402;28;20405;-42
2023/04/30 00:58:53;;;;;;;61.83;38.42;;;13.70;57.80;;;;;;5022067;28;20057;-46
2023/04/30 01:01:20;;;;;;;64.05;37.97;;;13.80;57.80;;;;;;5021734;28;20520;-48
2023/04/30 01:03:47;;;;;;;60.03;37.83;;;13.70;57.80;;;;;;5049402;23;20416;-42
2023/04/30 01:06:15;;;;;;;57.25;37.10;;;13.70;57.80;;;;;;5038433;28;20053;-42
2023/04/30 01:08:42;;;;;;;63.22;38.08;;;13.70;57.80;;;;;;5040944;28;20401;-42
2023/04/30 01:11:20;;;;;;;61.55;38.38;;;13.60;57.70;;;;;;5042193;28;20424;-43
2023/04/30 01:13:58;;;;;;;64.32;40.03;;;13.60;57.70;;;;;;5040725;28;20420;-43
2023/04/30 01:16:28;;;;;;;64.43;39.15;;;13.60;57.70;;;;;;5040259;28;20061;-50
2023/04/30 01:19:00;;;;;;;60.38;37.78;;;13.60;57.60;;;;;;5038962;28;20057;-43
2023/04/30 01:21:31;;;;;;;57.47;35.80;;;13.50;57.50;;;;;;5039848;28;20060;-41
2023/04/30 01:24:15;;;;;;;60.53;38.40;;;13.50;57.50;;;;;;5042132;28;20044;-42
2023/04/30 01:26:59;;;;;;;70.72;41.47;;;13.50;57.60;;;;;;5039709;28;20543;-41
2023/04/30 01:29:30;;;;;;;64.32;39.30;;;13.50;57.50;;;;;;5037915;28;20045;-45
2023/04/30 01:31:57;;;;;;;65.03;40.20;;;13.40;57.40;;;;;;5034977;28;20057;-44
2023/04/30 01:34:24;;;;;;;59.95;37.85;;;13.40;57.40;;;;;;5038235;28;20072;-41
2023/04/30 01:37:03;;;;;;;60.33;38.58;;;13.40;57.40;;;;;;5042163;28;20053;-42
2023/04/30 01:39:56;;;;;;;58.33;36.92;;;13.30;57.30;;;;;;5039127;28;20060;-46
2023/04/30 01:42:30;;;;;;;57.60;36.97;;;13.30;57.30;;;;;;5041486;28;20416;-41
2023/04/30 01:45:19;;;;;;;57.75;36.95;;;13.30;57.30;;;;;;5037222;28;20044;-42
2023/04/30 01:47:52;;;;;;;61.63;38.10;;;13.20;57.30;;;;;;5040455;28;20052;-42
2023/04/30 01:50:28;;;;;;;62.55;39.70;;;13.20;57.30;;;;;;5040880;28;20049;-41
2023/04/30 01:52:59;;;;;;;63.70;38.17;;;13.20;57.30;;;;;;5041651;28;20052;-41
2023/04/30 01:55:33;;;;;;;67.38;40.63;;;13.10;57.30;;;;;;5041032;28;20404;-43
2023/04/30 01:58:03;;;;;;;62.90;39.17;;;13.10;57.40;;;;;;5036496;28;20060;-46
2023/04/30 02:00:31;;;;;;;61.65;38.13;;;13.10;57.40;;;;;;5040485;28;20064;-44
2023/04/30 02:02:59;;;;;;;66.35;39.17;;;13.10;57.50;;;;;;5039494;28;20060;-43
2023/04/30 02:05:26;;;;;;;65.35;38.97;;;13.00;57.50;;;;;;5048731;28;20045;-46
2023/04/30 02:07:54;;;;;;;67.68;42.05;;;13.00;57.60;;;;;;5046801;28;20053;-45
2023/04/30 02:10:22;;;;;;;69.63;42.60;;;13.00;57.60;;;;;;5044699;28;20055;-42
2023/04/30 02:12:50;;;;;;;64.97;41.17;;;13.00;57.60;;;;;;5046797;28;20049;-41
2023/04/30 02:15:17;;;;;;;68.45;42.10;;;12.90;57.60;;;;;;5048259;28;20174;-48
2023/04/30 02:17:46;;;;;;;63.03;40.75;;;12.90;57.70;;;;;;5045581;28;20064;-42
2023/04/30 02:20:13;;;;;;;65.43;40.45;;;12.90;57.70;;;;;;5047578;28;20060;-41
2023/04/30 02:22:41;;;;;;;68.75;40.92;;;12.90;57.70;;;;;;5043134;28;20056;-42
2023/04/30 02:25:11;;;;;;;64.78;41.30;;;12.80;57.80;;;;;;5055936;28;20052;-40
2023/04/30 02:27:38;;;;;;;59.83;38.15;;;12.80;57.80;;;;;;5054005;28;20060;-43
2023/04/30 02:30:06;;;;;;;70.20;41.05;;;12.80;57.90;;;;;;5045678;28;20401;-42
2023/04/30 02:32:34;;;;;;;73.93;43.55;;;12.70;58.00;;;;;;5047393;28;20061;-41
2023/04/30 02:35:02;;;;;;;53.33;34.28;;;12.80;58.00;;;;;;5039988;28;20044;-42
2023/04/30 02:37:30;;;;;;;49.78;31.25;;;12.70;57.40;;;;;;5052436;28;20071;-45
2023/04/30 02:39:57;;;;;;;57.65;34.97;;;12.70;57.10;;;;;;5051232;28;20064;-43
2023/04/30 02:42:24;;;;;;;55.35;33.40;;;12.60;56.90;;;;;;5043729;28;20055;-41
2023/04/30 02:44:51;;;;;;;55.35;34.35;;;12.50;56.90;;;;;;5048079;28;20056;-44
2023/04/30 02:47:19;;;;;;;53.78;34.85;;;12.50;57.00;;;;;;5046741;28;20049;-45
2023/04/30 02:49:46;;;;;;;66.72;39.58;;;12.40;57.10;;;;;;5045518;28;20057;-48
2023/04/30 02:52:15;;;;;;;62.28;38.50;;;12.30;57.20;;;;;;5049341;28;20048;-47
2023/04/30 02:54:42;;;;;;;62.58;38.05;;;12.30;57.40;;;;;;5041395;28;20057;-50
2023/04/30 02:57:09;;;;;;;283.70;37.95;;;12.30;57.50;;;;;;5049088;28;20052;-49
2023/04/30 02:59:37;;;;;;;49.30;31.45;;;12.20;57.20;;;;;;5049056;28;21515;-47
2023/04/30 03:02:04;;;;;;;68.57;32.72;;;12.20;57.00;;;;;;5051704;28;20467;-51
2023/04/30 03:04:32;;;;;;;220.15;37.72;;;12.10;56.90;;;;;;5045739;28;20063;-41
2023/04/30 03:06:59;;;;;;;137.32;30.85;;;12.10;56.90;;;;;;5045803;28;20057;-40
2023/04/30 03:09:27;;;;;;;205.55;34.45;;;12.00;56.90;;;;;;5046749;28;20045;-46
2023/04/30 03:11:55;;;;;;;50.08;28.90;;;11.90;56.80;;;;;;5051917;28;20052;-40
2023/04/30 03:14:22;;;;;;;49.35;30.90;;;11.80;56.90;;;;;;5041819;28;20056;-45
2023/04/30 03:16:49;;;;;;;51.40;32.15;;;11.70;57.00;;;;;;5042647;28;20060;-45
2023/04/30 03:19:20;;;;;;;65.53;36.47;;;11.70;57.20;;;;;;5051890;28;20057;-41
2023/04/30 03:21:48;;;;;;;54.33;33.67;;;11.60;57.40;;;;;;5054683;28;20052;-51
2023/04/30 03:24:15;;;;;;;58.15;34.10;;;11.60;57.50;;;;;;5045823;28;20496;-47
2023/04/30 03:26:44;;;;;;;51.40;31.83;;;11.60;57.60;;;;;;5042182;28;20052;-47
2023/04/30 03:29:11;;;;;;;57.22;35.25;;;11.60;57.70;;;;;;5045577;28;20568;-43
2023/04/30 03:31:39;;;;;;;61.63;36.42;;;11.60;57.80;;;;;;5040453;28;20052;-41
2023/04/30 03:34:06;;;;;;;60.90;36.95;;;11.60;57.90;;;;;;5043413;28;20064;-40
2023/04/30 03:36:33;;;;;;;62.90;37.30;;;11.50;58.00;;;;;;5047177;28;20053;-40
2023/04/30 03:39:00;;;;;;;63.33;38.30;;;11.50;58.10;;;;;;5046518;28;20066;-42
2023/04/30 03:41:28;;;;;;;68.05;39.53;;;11.50;58.20;;;;;;5045740;28;20052;-41
2023/04/30 03:43:57;;;;;;;61.70;36.95;;;11.50;58.20;;;;;;5048540;28;20407;-43
2023/04/30 03:46:25;;;;;;;66.70;38.55;;;11.50;58.40;;;;;;5040728;28;20060;-42
2023/04/30 03:48:53;;;;;;;64.07;37.25;;;11.50;58.40;;;;;;5045803;28;20049;-41
2023/04/30 03:51:21;;;;;;;56.53;34.22;;;11.50;58.40;;;;;;5046398;28;20504;-44
2023/04/30 03:53:48;;;;;;;53.03;31.98;;;11.50;58.50;;;;;;5047224;28;20049;-42
2023/04/30 03:56:15;;;;;;;53.10;31.73;;;11.50;58.50;;;;;;5047236;28;20052;-42
2023/04/30 03:58:44;;;;;;;51.63;31.05;;;11.50;58.40;;;;;;5051128;28;20411;-40
2023/04/30 04:01:12;;;;;;;51.03;32.58;;;11.50;58.30;;;;;;5047804;28;20053;-42
2023/04/30 04:03:40;;;;;;;60.67;37.03;;;11.50;58.30;;;;;;5045789;28;20059;-45
2023/04/30 04:06:07;;;;;;;61.53;36.80;;;11.50;58.40;;;;;;5039042;28;20044;-42
2023/04/30 04:08:35;;;;;;;60.63;36.95;;;11.50;58.40;;;;;;5044235;28;20052;-46
2023/04/30 04:11:02;;;;;;;61.17;35.35;;;11.50;58.50;;;;;;5039643;28;20063;-42
2023/04/30 04:13:29;;;;;;;57.75;35.08;;;11.50;58.50;;;;;;5046064;28;20057;-42
2023/04/30 04:15:57;;;;;;;55.45;33.22;;;11.50;58.60;;;;;;5040949;28;20057;-41
2023/04/30 04:18:26;;;;;;;41.25;27.17;;;11.50;58.40;;;;;;5035114;28;21948;-45
2023/04/30 04:20:54;;;;;;;50.95;31.70;;;11.40;58.10;;;;;;5045314;28;20052;-40
2023/04/30 04:23:22;;;;;;;52.70;32.15;;;11.40;58.10;;;;;;5052779;28;20061;-43
2023/04/30 04:25:49;;;;;;;51.50;32.50;;;11.40;58.20;;;;;;5046471;28;20508;-42
2023/04/30 04:28:16;;;;;;;342.10;28.80;;;11.40;58.30;;;;;;5048040;28;20049;-42
2023/04/30 04:30:44;;;;;;;87.45;24.80;;;11.30;57.40;;;;;;5046949;28;20053;-41
2023/04/30 04:33:11;;;;;;;125.65;24.45;;;11.20;56.70;;;;;;5059085;28;20052;-41
2023/04/30 04:35:40;;;;;;;31.02;22.63;;;11.20;56.60;;;;;;5052153;28;20052;-41
2023/04/30 04:38:08;;;;;;;31.30;22.23;;;11.10;56.70;;;;;;5045574;28;20048;-45
2023/04/30 04:40:36;;;;;;;32.63;21.67;;;11.00;57.40;;;;;;5049247;28;20064;-47
2023/04/30 04:43:03;;;;;;;37.50;25.17;;;10.90;57.10;;;;;;5050392;28;20530;-42
2023/04/30 04:45:31;;;;;;;45.08;26.38;;;10.90;57.50;;;;;;5051221;28;20420;-42
2023/04/30 04:47:58;;;;;;;42.83;28.55;;;10.90;57.80;;;;;;5048325;28;20053;-43
2023/04/30 04:50:25;;;;;;;46.47;29.05;;;10.90;58.00;;;;;;5043169;28;20060;-42
2023/04/30 04:52:54;;;;;;;43.75;28.08;;;10.80;58.20;;;;;;5046208;28;20063;-41
2023/04/30 04:55:22;;;;;;;44.17;29.02;;;10.80;58.50;;;;;;5043879;28;20068;-42
2023/04/30 04:57:49;;;;;;;44.97;28.08;;;10.80;58.60;;;;;;5048945;28;20056;-41
2023/04/30 05:00:17;;;;;;;40.15;25.73;;;10.90;58.80;;;;;;5044942;28;20079;-46
2023/04/30 05:02:44;;;;;;;39.92;25.38;;;10.90;59.00;;;;;;5046699;28;20056;-42
2023/04/30 05:05:11;;;;;;;33.80;23.58;;;10.90;59.10;;;;;;5049886;28;20052;-41
2023/04/30 05:07:40;;;;;;;30.80;22.45;;;10.90;59.20;;;;;;5043313;28;20506;-42
2023/04/30 05:10:09;;;;;;;35.25;23.40;;;11.00;59.40;;;;;;5052459;28;20060;-50
2023/04/30 05:12:36;;;;;;;39.85;25.58;;;11.00;59.50;;;;;;5022553;28;20071;-46
2023/04/30 05:15:05;;;;;;;34.63;23.30;;;11.10;59.50;;;;;;5042938;28;20059;-51
2023/04/30 05:17:32;;;;;;;33.45;23.65;;;11.10;59.60;;;;;;5041893;28;20052;-54
2023/04/30 05:20:00;;;;;;;40.47;26.17;;;11.20;59.70;;;;;;5045901;28;20052;-47
2023/04/30 05:22:27;;;;;;;38.85;24.48;;;11.20;59.70;;;;;;5046048;28;20067;-47
2023/04/30 05:24:54;;;;;;;35.17;22.67;;;11.20;59.80;;;;;;5038911;28;20053;-49
2023/04/30 05:27:23;;;;;;;35.38;22.83;;;11.20;59.80;;;;;;5038909;28;20060;-48
2023/04/30 05:29:50;;;;;;;36.47;23.95;;;11.30;60.00;;;;;;5037292;28;20064;-50
2023/04/30 05:32:17;;;;;;;43.55;27.52;;;11.30;60.10;;;;;;5047507;28;20488;-47
2023/04/30 05:34:44;;;;;;;76.60;39.30;;;11.40;60.20;;;;;;5047380;28;20048;-48
2023/04/30 05:37:13;;;;;;;49.38;28.50;;;11.40;60.30;;;;;;5049725;28;20412;-52
2023/04/30 05:39:40;;;;;;;33.83;22.63;;;11.50;60.40;;;;;;5046863;28;20056;-47
2023/04/30 05:42:07;;;;;;;29.40;20.48;;;11.50;60.40;;;;;;5045519;28;20061;-49
2023/04/30 05:44:36;;;;;;;28.20;19.77;;;11.50;60.40;;;;;;5050235;28;20048;-51
2023/04/30 05:47:03;;;;;;;26.27;18.67;;;11.60;60.40;;;;;;5043225;28;20064;-48
2023/04/30 05:49:30;;;;;;;22.38;16.90;;;11.60;60.40;;;;;;5044925;28;20397;-49
2023/04/30 05:51:58;;;;;;;22.08;16.70;;;11.70;60.40;;;;;;5048153;28;20052;-49
2023/04/30 05:54:25;;;;;;;22.35;16.95;;;11.80;60.40;;;;;;5045958;28;20052;-50
2023/04/30 05:56:52;;;;;;;22.95;17.73;;;11.80;60.30;;;;;;5047761;28;20049;-49
2023/04/30 05:59:19;;;;;;;23.85;17.23;;;11.90;60.30;;;;;;5040929;28;20056;-50
2023/04/30 06:01:48;;;;;;;24.73;15.88;;;11.90;60.30;;;;;;5039756;28;20512;-52
2023/04/30 06:04:15;;;;;;;22.42;17.20;;;12.00;60.30;;;;;;5035959;28;20067;-49
2023/04/30 06:06:42;;;;;;;20.52;15.82;;;12.00;60.30;;;;;;5048152;28;20053;-50
2023/04/30 06:09:10;;;;;;;23.45;16.02;;;12.10;60.40;;;;;;5044405;28;20052;-48
2023/04/30 06:11:37;;;;;;;26.20;17.83;;;12.10;60.30;;;;;;5051623;28;20044;-49
2023/04/30 06:14:05;;;;;;;25.88;16.48;;;12.10;60.20;;;;;;5041477;28;20072;-48
2023/04/30 06:16:32;;;;;;;22.85;16.13;;;12.20;60.20;;;;;;5050445;28;20488;-47
2023/04/30 06:19:01;;;;;;;24.77;17.35;;;12.20;60.20;;;;;;5056888;28;20476;-47
2023/04/30 06:21:28;;;;;;;22.60;16.08;;;12.30;60.30;;;;;;5053165;28;20061;-49
2023/04/30 06:23:56;;;;;;;22.20;16.30;;;12.40;60.40;;;;;;5053068;28;20079;-47
2023/04/30 06:26:23;;;;;;;23.95;17.13;;;12.40;60.30;;;;;;5053648;28;20053;-51
2023/04/30 06:28:50;;;;;;;41.85;24.98;;;12.40;60.30;;;;;;5051437;28;20053;-46
2023/04/30 06:31:17;;;;;;;39.25;24.42;;;12.50;60.40;;;;;;5048068;28;20423;-46
2023/04/30 06:33:45;;;;;;;31.30;20.40;;;12.60;60.40;;;;;;5054401;28;20063;-46
2023/04/30 06:36:13;;;;;;;26.23;19.58;;;12.60;60.40;;;;;;5055631;28;20488;-46
2023/04/30 06:38:41;;;;;;;28.90;18.10;;;12.60;59.80;;;;;;5053582;28;20404;-52
2023/04/30 06:41:08;;;;;;;23.52;16.77;;;12.70;59.80;;;;;;5051619;28;20052;-49
2023/04/30 06:43:36;;;;;;;22.55;16.55;;;12.70;59.90;;;;;;5055851;28;20064;-49
2023/04/30 06:46:03;;;;;;;21.50;15.88;;;12.70;60.00;;;;;;5053174;28;20056;-48
2023/04/30 06:48:31;;;;;;;27.60;19.83;;;12.70;60.20;;;;;;5049988;28;20056;-46
2023/04/30 06:50:58;;;;;;;26.92;19.67;;;12.70;60.00;;;;;;5051385;28;20056;-51
2023/04/30 06:53:27;;;;;;;29.25;20.85;;;12.80;60.00;;;;;;5049751;28;20057;-48
2023/04/30 06:55:55;;;;;;;28.70;20.20;;;12.80;59.80;;;;;;5054290;28;20492;-51
2023/04/30 06:58:22;;;;;;;27.65;19.90;;;12.80;59.50;;;;;;5048342;28;20047;-48
2023/04/30 07:00:50;;;;;;;24.02;18.42;;;12.90;59.60;;;;;;5055146;28;20488;-47
2023/04/30 07:03:17;;;;;;;24.00;17.50;;;12.80;59.80;;;;;;5045106;28;20099;-50
2023/04/30 07:05:44;;;;;;;26.35;18.00;;;12.90;60.20;;;;;;5052527;28;20053;-53
2023/04/30 07:08:12;;;;;;;24.75;15.70;;;12.90;60.40;;;;;;5055045;28;20055;-48
2023/04/30 07:10:40;;;;;;;24.33;18.05;;;12.90;60.50;;;;;;5054203;28;20056;-48
2023/04/30 07:13:08;;;;;;;21.42;15.65;;;13.00;60.70;;;;;;5054137;28;20048;-48
2023/04/30 07:15:35;;;;;;;18.90;13.57;;;13.00;60.90;;;;;;5054228;28;20060;-48
2023/04/30 07:18:03;;;;;;;19.67;13.60;;;13.10;61.00;;;;;;5051753;28;20048;-50
2023/04/30 07:20:30;;;;;;;20.08;14.40;;;13.20;61.10;;;;;;5048128;28;20424;-48
2023/04/30 07:22:58;;;;;;;22.27;15.60;;;13.30;61.10;;;;;;5059991;28;20420;-51
2023/04/30 07:25:25;;;;;;;24.25;15.05;;;13.40;61.00;;;;;;5048155;28;20053;-49
2023/04/30 07:27:55;;;;;;;18.05;13.38;;;13.40;61.00;;;;;;5053951;28;20052;-42
2023/04/30 07:30:23;;;;;;;23.88;14.57;;;13.50;61.00;;;;;;5046484;28;20044;-43
2023/04/30 07:32:51;;;;;;;19.40;14.27;;;13.60;60.90;;;;;;5048373;28;20056;-42
2023/04/30 07:35:18;;;;;;;22.02;16.27;;;13.70;60.60;;;;;;5049683;28;20488;-41
2023/04/30 07:37:46;;;;;;;25.33;17.80;;;13.80;60.30;;;;;;5044202;28;20049;-45
2023/04/30 07:40:14;;;;;;;23.08;16.25;;;13.80;59.10;;;;;;5050583;28;20052;-41
2023/04/30 07:42:42;;;;;;;22.42;14.88;;;13.90;58.80;;;;;;5051659;28;20068;-42
2023/04/30 07:45:11;;;;;;;27.90;15.23;;;13.90;58.10;;;;;;5052492;28;20523;-44
2023/04/30 07:47:39;;;;;;;17.67;12.75;;;13.90;57.90;;;;;;5050896;28;20048;-40
2023/04/30 07:50:07;;;;;;;24.00;14.80;;;14.00;58.20;;;;;;5055759;28;20064;-41
2023/04/30 07:52:34;;;;;;;22.73;14.32;;;14.10;58.50;;;;;;5041983;28;20424;-45
2023/04/30 07:55:02;;;;;;;17.42;12.73;;;14.10;57.70;;;;;;5056061;28;20362;-44
2023/04/30 07:57:29;;;;;;;23.15;13.93;;;14.20;57.60;;;;;;5055464;28;20048;-43
2023/04/30 07:59:56;;;;;;;16.80;12.80;;;14.20;57.70;;;;;;5044074;28;20055;-42
2023/04/30 08:02:25;;;;;;;20.73;12.85;;;14.30;57.40;;;;;;5048515;28;20064;-42
2023/04/30 08:04:52;;;;;;;22.77;12.15;;;14.30;57.10;;;;;;5059961;28;20060;-41
2023/04/30 08:07:21;;;;;;;19.15;11.90;;;14.40;56.40;;;;;;5060489;28;20496;-41
2023/04/30 08:09:48;;;;;;;14.35;10.18;;;14.50;56.90;;;;;;5059110;28;20067;-44
2023/04/30 08:12:17;;;;;;;16.83;12.05;;;14.50;57.30;;;;;;5056296;28;20049;-44
2023/04/30 08:14:44;;;;;;;17.25;12.65;;;14.60;57.40;;;;;;5048055;28;20057;-42
2023/04/30 08:17:11;;;;;;;18.27;11.93;;;14.60;57.20;;;;;;5046920;28;20053;-41
2023/04/30 08:19:40;;;;;;;17.52;11.55;;;14.70;57.40;;;;;;5059287;28;20049;-41
2023/04/30 08:22:07;;;;;;;16.38;11.82;;;14.80;57.60;;;;;;5049905;28;20044;-40
2023/04/30 08:24:34;;;;;;;14.43;11.02;;;14.90;57.10;;;;;;5053169;28;20407;-43
2023/04/30 08:27:02;;;;;;;15.93;9.25;;;14.90;56.40;;;;;;5054358;28;20052;-42
2023/04/30 08:29:30;;;;;;;11.95;8.95;;;15.00;56.80;;;;;;5054762;28;20052;-42
2023/04/30 08:32:02;;;;;;;12.73;7.63;;;15.00;56.80;;;;;;5057008;28;20531;-42
2023/04/30 08:34:30;;;;;;;8.02;6.03;;;15.20;56.80;;;;;;5056704;28;20056;-40
2023/04/30 08:36:59;;;;;;;7.88;5.85;;;15.20;56.50;;;;;;5056571;28;20392;-42
2023/04/30 08:39:26;;;;;;;7.32;4.95;;;15.30;56.10;;;;;;5058714;28;20059;-45
2023/04/30 08:41:56;;;;;;;5.90;4.28;;;15.30;55.80;;;;;;5051891;28;20056;-41
2023/04/30 08:44:24;;;;;;;7.43;5.38;;;15.40;55.40;;;;;;5047241;28;20519;-46
2023/04/30 08:46:53;;;;;;;6.35;4.72;;;15.50;55.30;;;;;;5059412;28;20065;-43
2023/04/30 08:49:21;;;;;;;4.50;3.30;;;15.50;55.00;;;;;;5059848;28;20051;-43
2023/04/30 08:51:49;;;;;;;4.60;3.30;;;15.60;54.80;;;;;;5052276;28;20975;-44
2023/04/30 08:54:19;;;;;;;4.28;3.28;;;15.60;54.40;;;;;;5050249;28;20059;-43
2023/04/30 08:56:47;;;;;;;7.30;3.85;;;15.70;54.20;;;;;;5057254;28;20059;-46
2023/04/30 08:59:14;;;;;;;3.53;2.35;;;15.70;54.10;;;;;;5053751;28;20140;-42
2023/04/30 09:01:42;;;;;;;1.58;1.30;;;15.80;53.80;;;;;;5047166;28;20053;-47
2023/04/30 09:04:09;;;;;;;1.50;1.13;;;15.90;53.50;;;;;;5059122;28;20439;-43
2023/04/30 09:06:36;;;;;;;0.77;0.77;;;15.90;53.10;;;;;;5055869;28;20075;-43
2023/04/30 09:09:09;;;;;;;0.68;0.68;;;16.00;53.20;;;;;;5058413;28;20056;-43
2023/04/30 09:11:38;;;;;;;0.80;0.80;;;16.00;51.80;;;;;;5052444;28;20461;-44
2023/04/30 09:14:06;;;;;;;0.73;0.70;;;16.00;51.70;;;;;;5057413;28;20067;-46
2023/04/30 09:16:46;;;;;;;1.08;0.98;;;16.10;51.60;;;;;;5055719;28;20052;-42
2023/04/30 09:19:24;;;;;;;1.17;0.60;;;16.10;50.80;;;;;;5055240;28;20060;-43
2023/04/30 09:21:51;;;;;;;1.60;0.98;;;16.20;51.10;;;;;;5057487;28;20056;-42
2023/04/30 09:24:18;;;;;;;0.85;0.50;;;16.20;51.10;;;;;;5050635;28;20404;-41
2023/04/30 09:26:47;;;;;;;1.30;0.80;;;16.30;50.80;;;;;;5051463;28;20416;-40
2023/04/30 09:29:14;;;;;;;1.98;0.80;;;16.30;50.50;;;;;;5056688;28;20048;-43
2023/04/30 09:31:44;;;;;;;2.65;0.82;;;16.40;50.10;;;;;;5055610;28;20055;-42
2023/04/30 09:34:12;;;;;;;0.80;0.50;;;16.40;49.60;;;;;;5044210;28;20409;-43
2023/04/30 09:36:53;;;;;;;0.88;0.35;;;16.50;49.80;;;;;;5055540;28;20052;-42
2023/04/30 09:39:20;;;;;;;0.45;0.38;;;16.60;49.40;;;;;;5057043;28;20048;-45
2023/04/30 09:41:51;;;;;;;1.85;0.70;;;16.60;49.40;;;;;;5051532;28;20115;-41
2023/04/30 09:44:28;;;;;;;0.47;0.45;;;16.70;49.20;;;;;;5055584;28;20045;-46
2023/04/30 09:46:57;;;;;;;0.60;0.60;;;16.80;48.70;;;;;;5054329;28;20053;-44
2023/04/30 09:49:25;;;;;;;0.52;0.30;;;16.80;48.70;;;;;;5055806;28;20048;-46
2023/04/30 09:51:56;;;;;;;0.50;0.40;;;16.90;48.60;;;;;;5050444;28;20056;-40
2023/04/30 09:54:26;;;;;;;0.82;0.57;;;16.90;48.10;;;;;;5049750;28;20075;-42
2023/04/30 09:56:56;;;;;;;0.90;0.47;;;17.00;48.10;;;;;;5052372;28;20052;-44
2023/04/30 09:59:29;;;;;;;0.73;0.63;;;17.00;48.00;;;;;;5061203;28;20055;-43
2023/04/30 10:01:58;;;;;;;1.02;0.60;;;17.00;48.00;;;;;;5049111;28;20101;-42
2023/04/30 10:04:28;;;;;;;0.82;0.73;;;17.10;48.30;;;;;;5056382;28;20052;-42
2023/04/30 10:06:57;;;;;;;1.45;0.90;;;17.20;48.10;;;;;;5053437;28;20053;-42
2023/04/30 10:09:29;;;;;;;1.40;0.90;;;17.20;45.90;;;;;;5048719;28;20053;-43
2023/04/30 10:11:58;;;;;;;0.85;0.50;;;17.20;47.00;;;;;;5056146;28;20059;-41
2023/04/30 10:14:28;;;;;;;0.57;0.57;;;17.40;47.30;;;;;;5056133;28;20053;-42
2023/04/30 10:17:02;;;;;;;0.85;0.60;;;17.40;47.30;;;;;;5051401;28;20056;-42
2023/04/30 10:19:31;;;;;;;1.17;0.35;;;17.40;47.30;;;;;;5051720;28;20057;-44
2023/04/30 10:22:00;;;;;;;0.55;0.40;;;17.50;47.60;;;;;;5058651;28;20526;-42
2023/04/30 10:24:28;;;;;;;0.70;0.40;;;17.50;47.10;;;;;;5050316;28;20060;-46
2023/04/30 10:26:56;;;;;;;1.08;0.50;;;17.60;46.70;;;;;;5048842;28;20072;-41
2023/04/30 10:29:24;;;;;;;0.68;0.43;;;17.60;44.70;;;;;;5046856;28;20404;-47
2023/04/30 10:31:52;;;;;;;1.67;0.43;;;17.70;43.70;;;;;;5052494;28;20061;-42
2023/04/30 10:34:33;;;;;;;0.57;0.40;;;17.70;44.40;;;;;;5050195;28;20400;-42
2023/04/30 10:37:04;;;;;;;0.40;0.40;;;17.70;44.90;;;;;;5056987;28;20060;-43
2023/04/30 10:39:32;;;;;;;0.55;0.50;;;17.80;45.30;;;;;;5057616;28;20502;-44
2023/04/30 10:42:03;;;;;;;0.57;0.40;;;17.80;44.10;;;;;;5057170;28;20057;-47
2023/04/30 10:44:33;;;;;;;1.48;0.60;;;17.90;43.30;;;;;;5046136;28;20059;-43
2023/04/30 10:47:02;;;;;;;2.35;0.60;;;17.90;42.80;;;;;;5055515;28;20053;-42
2023/04/30 10:49:29;;;;;;;0.50;0.38;;;18.00;44.20;;;;;;5058306;28;20052;-41
2023/04/30 10:51:59;;;;;;;0.68;0.47;;;18.10;44.70;;;;;;5053419;28;20412;-41
2023/04/30 10:54:28;;;;;;;0.95;0.40;;;18.10;45.10;;;;;;5053355;28;20063;-42
2023/04/30 10:57:10;;;;;;;1.95;0.40;;;18.20;45.10;;;;;;5048881;28;20515;-42
2023/04/30 10:59:43;;;;;;;0.50;0.50;;;18.20;44.80;;;;;;5046029;28;20049;-43
2023/04/30 11:02:12;;;;;;;1.90;0.35;;;18.20;44.70;;;;;;5051892;28;20055;-43
2023/04/30 11:05:08;;;;;;;0.55;0.50;;;18.30;44.70;;;;;;5050565;28;20061;-47
2023/04/30 11:07:36;;;;;;;0.38;0.38;;;18.30;44.20;;;;;;5048388;28;20068;-42
2023/04/30 11:10:04;;;;;;;0.40;0.30;;;18.40;44.60;;;;;;5052608;28;20053;-42
2023/04/30 11:12:31;;;;;;;1.50;0.55;;;18.40;44.30;;;;;;5054024;28;20060;-41
2023/04/30 11:15:01;;;;;;;1.00;0.40;;;18.40;43.90;;;;;;5042895;28;20515;-47
2023/04/30 11:17:28;;;;;;;0.55;0.50;;;18.40;44.00;;;;;;5056632;28;20063;-50
2023/04/30 11:20:00;;;;;;;0.32;0.32;;;18.50;44.00;;;;;;5054216;28;20056;-41
2023/04/30 11:22:34;;;;;;;0.93;0.30;;;18.50;43.90;;;;;;5049889;28;20060;-50
2023/04/30 11:25:08;;;;;;;0.55;0.47;;;18.60;44.10;;;;;;5053611;28;20067;-42
2023/04/30 11:27:36;;;;;;;0.85;0.40;;;18.60;43.80;;;;;;5057490;28;20060;-46
2023/04/30 11:30:11;;;;;;;1.52;0.40;;;18.60;43.90;;;;;;5046169;28;20481;-43
2023/04/30 11:32:39;;;;;;;0.57;0.40;;;18.60;43.50;;;;;;5060491;28;20049;-41
2023/04/30 11:35:08;;;;;;;1.13;0.50;;;18.60;44.10;;;;;;5057424;28;20052;-42
2023/04/30 11:37:37;;;;;;;0.32;0.30;;;18.60;43.70;;;;;;5062792;28;20064;-41
2023/04/30 11:40:06;;;;;;;1.95;0.47;;;18.70;43.70;;;;;;5058107;28;20400;-43
2023/04/30 11:42:34;;;;;;;1.05;0.50;;;18.70;43.70;;;;;;5062322;28;20052;-48
2023/04/30 11:45:08;;;;;;;0.52;0.40;;;18.70;44.30;;;;;;5044589;28;20053;-43
2023/04/30 11:47:42;;;;;;;1.17;0.50;;;18.80;43.20;;;;;;5052407;28;20052;-41
2023/04/30 11:50:11;;;;;;;1.65;0.73;;;18.80;43.40;;;;;;5055846;28;20493;-42
2023/04/30 11:52:39;;;;;;;0.70;0.60;;;18.90;43.40;;;;;;5054834;28;20062;-42
2023/04/30 11:55:14;;;;;;;0.88;0.40;;;18.90;43.30;;;;;;5061444;28;20057;-41
2023/04/30 11:57:43;;;;;;;0.30;0.30;;;18.90;43.20;;;;;;5058367;28;20056;-41
2023/04/30 12:00:14;;;;;;;0.77;0.40;;;19.00;43.70;;;;;;5046292;28;20064;-46
2023/04/30 12:02:42;;;;;;;1.17;0.40;;;19.00;43.30;;;;;;5061556;28;20056;-44
2023/04/30 12:05:14;;;;;;;1.02;0.40;;;19.00;43.40;;;;;;5062863;28;20061;-41
2023/04/30 12:07:46;;;;;;;2.78;0.50;;;19.10;43.40;;;;;;5055499;28;20064;-41
2023/04/30 12:10:13;;;;;;;0.55;0.55;;;19.20;43.20;;;;;;5050768;28;20044;-43
2023/04/30 12:12:42;;;;;;;0.82;0.47;;;19.20;43.70;;;;;;5060131;28;20067;-41
2023/04/30 12:15:16;;;;;;;3.00;0.52;;;19.30;42.90;;;;;;5044783;28;20491;-41
2023/04/30 12:17:43;;;;;;;1.67;0.50;;;19.30;42.60;;;;;;5061851;28;20079;-48
2023/04/30 12:20:13;;;;;;;1.58;0.60;;;19.30;43.00;;;;;;5057038;28;20460;-41
2023/04/30 12:22:41;;;;;;;1.65;0.52;;;19.40;42.90;;;;;;5063215;28;20507;-40
2023/04/30 12:25:12;;;;;;;0.95;0.55;;;19.40;42.80;;;;;;5052573;28;20530;-44
2023/04/30 12:27:41;;;;;;;2.30;0.40;;;19.40;42.80;;;;;;5058662;28;20049;-43
2023/04/30 12:30:09;;;;;;;0.65;0.50;;;19.40;42.90;;;;;;5051925;28;20072;-41
2023/04/30 12:32:43;;;;;;;0.73;0.47;;;19.50;42.90;;;;;;5062439;28;20439;-45
2023/04/30 12:35:15;;;;;;;0.47;0.40;;;19.50;42.60;;;;;;5060193;28;20535;-41
2023/04/30 12:37:44;;;;;;;1.25;0.60;;;19.50;42.50;;;;;;5060106;28;20056;-46
2023/04/30 12:40:12;;;;;;;0.70;0.40;;;19.50;42.50;;;;;;5055958;28;20052;-42
2023/04/30 12:42:41;;;;;;;0.68;0.50;;;19.50;42.40;;;;;;5055387;28;20053;-47